Terminal Aerodrome Forecast
Issued by NWS

Home | Current Version | Previous Version | Text Only | Print | Product List | Glossary On
Versions: 1 2 3 4 5 6 7 8 9 10 11 12 13 14 15 16 17 18 19 20 21 22 23 24 25 26 27 28 29 30 31 32 33 34 35
000
FTAK31 PAFA 031730
TAFAOM
TAF
PAOM 031730Z 0318/0418 10005KT 1 1/2SM -SHRA BR OVC004
     FM032100 10010KT 4SM -SHRA BR BKN007 OVC015
     FM040000 10006KT P6SM VCSH BKN015 OVC025
     FM040900 00000KT P6SM SCT015 OVC035=

USA.gov is the U.S. government's official web portal to all federal, state and local government web resources and services.